»·PEaware :: GTI3521 KATL-KBOS

GTI3521 :: KATL-KBOS

FLIGHT INFORMATION

Flight Status: Arrived
Operator:
Atlas Air
More flights by this operator :: More flights under this callsign
Pilot: Drew L. (13237)
Aircraft: BOEING 767-300
(B763)
More flights by this aircraft type
Origin: KATL Hartsfield-Jackson Atlanta
United States
Destination: KBOS Logan Intl
United States
More flights between these airports :: More routes between these airports
Route: PLMMR2 SPA Q22 BEARI THHMP MAAXY OOD J42 RBV J222 JFK ROBUC3
File this flight plan on PilotEdge
Remarks: RMK / SIMBRIEF
Altitude:
(Current/Filed)
35,000ft
Speed:
(Current/Filed)
454kts
Departed: 16-Oct-20 10:34 AM
Arrived: 16-Oct-20 12:27 PM
Distance/Time
Traveled:
821nm/1:53
Distance/Time
To Go:
Arrived

Flight Plot

Page will automatically refresh every two minutes.

Flight plan parsing failed; only flown route is shown


Map Options




Map Legend


Flown Route
Filed Route
Departure Airport
Arrival Airport
Navaid (VOR, NDB)
Fix

Horizontal Profiles

Position Reports

Time Latitude Longitude Heading Altitude Ground
Speed
16-Oct-20 09:54 33.651947 -84.419527 269 1035ft 0kts
16-Oct-20 09:55 33.651947 -84.419527 269 1035ft 0kts
16-Oct-20 09:56 33.651947 -84.419527 269 1035ft 0kts
16-Oct-20 09:57 33.651947 -84.419527 269 1035ft 0kts
16-Oct-20 09:58 33.651947 -84.419527 269 1035ft 0kts
16-Oct-20 09:59 33.651947 -84.419527 269 1035ft 0kts
16-Oct-20 10:00 33.651947 -84.419527 269 1035ft 0kts
16-Oct-20 10:01 33.651947 -84.419527 269 1035ft 0kts
16-Oct-20 10:02 33.651947 -84.419527 269 1035ft 0kts
16-Oct-20 10:03 33.651947 -84.419527 269 1035ft 0kts
16-Oct-20 10:04 33.651947 -84.419527 269 1035ft 0kts
16-Oct-20 10:05 33.651947 -84.419527 269 1035ft 0kts
16-Oct-20 10:06 33.651947 -84.419527 269 1035ft 0kts
16-Oct-20 10:07 33.651947 -84.419527 269 1035ft 0kts
16-Oct-20 10:08 33.651947 -84.419527 269 1035ft 0kts
16-Oct-20 10:09 33.651947 -84.419527 269 1035ft 0kts
16-Oct-20 10:10 33.651947 -84.419527 269 1035ft 0kts
16-Oct-20 10:11 33.651947 -84.419527 269 1035ft 0kts
16-Oct-20 10:12 33.651941 -84.419636 261 1035ft 2kts
16-Oct-20 10:13 33.651501 -84.419397 114 1035ft 4kts
16-Oct-20 10:14 33.650630 -84.419793 271 1035ft 10kts
16-Oct-20 10:15 33.650642 -84.425175 270 1035ft 20kts
16-Oct-20 10:16 33.650630 -84.431327 270 1035ft 14kts
16-Oct-20 10:17 33.651180 -84.436031 269 1035ft 16kts
16-Oct-20 10:18 33.650316 -84.438825 191 1035ft 4kts
16-Oct-20 10:19 33.648458 -84.438306 101 1035ft 10kts
16-Oct-20 10:20 33.648093 -84.433226 112 1035ft 16kts
16-Oct-20 10:21 33.647892 -84.428795 89 1035ft 13kts
16-Oct-20 10:22 33.647901 -84.422749 90 1035ft 19kts
16-Oct-20 10:23 33.647905 -84.417284 90 1035ft 14kts
16-Oct-20 10:24 33.648015 -84.412880 71 1035ft 11kts
16-Oct-20 10:25 33.648469 -84.410173 91 1035ft 0kts
16-Oct-20 10:26 33.648469 -84.410173 91 1035ft 0kts
16-Oct-20 10:27 33.648469 -84.410173 91 1035ft 0kts
16-Oct-20 10:28 33.648469 -84.410173 91 1035ft 0kts
16-Oct-20 10:29 33.648469 -84.410173 91 1035ft 0kts
16-Oct-20 10:30 33.648469 -84.410173 91 1035ft 0kts
16-Oct-20 10:31 33.648965 -84.409655 356 1035ft 6kts
16-Oct-20 10:32 33.649545 -84.409866 271 1035ft 0kts
16-Oct-20 10:33 33.649513 -84.426463 270 1036ft 142kts
16-Oct-20 10:34 33.657283 -84.483783 293 2608ft 199kts
16-Oct-20 10:35 33.682246 -84.552553 293 4829ft 237kts
16-Oct-20 10:36 33.740684 -84.580976 353 7637ft 260kts
16-Oct-20 10:37 33.809363 -84.554954 55 10131ft 306kts
16-Oct-20 10:38 33.813204 -84.441659 90 11413ft 378kts
16-Oct-20 10:39 33.818234 -84.312428 76 14010ft 396kts
16-Oct-20 10:40 33.842116 -84.179954 76 16471ft 414kts
16-Oct-20 10:41 33.866967 -84.042012 76 18730ft 431kts
16-Oct-20 10:42 33.893650 -83.899164 68 20841ft 446kts
16-Oct-20 10:43 33.941735 -83.759089 63 22860ft 460kts
16-Oct-20 10:44 34.012299 -83.630522 48 24743ft 467kts
16-Oct-20 10:45 34.090510 -83.502724 48 26549ft 481kts
16-Oct-20 10:46 34.171267 -83.370512 48 28219ft 496kts
16-Oct-20 10:47 34.253980 -83.234574 49 29729ft 509kts
16-Oct-20 10:48 34.338716 -83.095369 49 31241ft 517kts
16-Oct-20 10:49 34.423830 -82.956104 49 32910ft 514kts
16-Oct-20 10:50 34.508424 -82.817141 50 34326ft 509kts
16-Oct-20 10:51 34.591823 -82.679568 51 35147ft 505kts
16-Oct-20 10:52 34.669176 -82.551383 51 35153ft 514kts
16-Oct-20 10:53 34.753875 -82.407242 51 35156ft 534kts
16-Oct-20 10:54 34.839688 -82.260610 52 35148ft 533kts
16-Oct-20 10:55 34.920070 -82.122721 52 35137ft 539kts
16-Oct-20 10:57 35.008302 -81.970766 52 35132ft 559kts
16-Oct-20 10:58 35.101922 -81.816899 50 35136ft 565kts
16-Oct-20 10:59 35.196477 -81.664033 50 35139ft 566kts
16-Oct-20 11:00 35.290870 -81.510718 50 35141ft 565kts
16-Oct-20 11:01 35.385042 -81.357053 50 35157ft 565kts
16-Oct-20 11:02 35.479132 -81.202878 50 35143ft 565kts
16-Oct-20 11:03 35.572938 -81.048480 51 35148ft 563kts
16-Oct-20 11:04 35.665595 -80.895316 51 35146ft 554kts
16-Oct-20 11:05 35.757015 -80.743573 51 35143ft 554kts
16-Oct-20 11:06 35.848573 -80.590899 52 35146ft 554kts
16-Oct-20 11:07 35.939901 -80.437955 52 35160ft 554kts
16-Oct-20 11:08 36.031049 -80.284962 52 35166ft 553kts
16-Oct-20 11:09 36.122187 -80.131470 52 35156ft 554kts
16-Oct-20 11:10 36.213453 -79.977112 52 35149ft 555kts
16-Oct-20 11:11 36.304163 -79.822977 52 35142ft 554kts
16-Oct-20 11:12 36.394626 -79.668619 52 35139ft 554kts
16-Oct-20 11:13 36.484657 -79.514301 52 35152ft 554kts
16-Oct-20 11:14 36.574827 -79.359006 52 35156ft 553kts
16-Oct-20 11:15 36.664619 -79.203690 53 35143ft 554kts
16-Oct-20 11:15 36.738950 -79.074569 53 35146ft 544kts
16-Oct-20 11:16 36.825742 -78.923149 53 35150ft 533kts
16-Oct-20 11:17 36.911256 -78.772228 53 35166ft 535kts
16-Oct-20 11:18 36.997127 -78.620021 54 35173ft 539kts
16-Oct-20 11:19 37.084700 -78.464083 55 35172ft 554kts
16-Oct-20 11:20 37.173793 -78.304676 56 35149ft 559kts
16-Oct-20 11:21 37.240117 -78.129933 72 35159ft 554kts
16-Oct-20 11:22 37.296430 -77.951046 72 35172ft 552kts
16-Oct-20 11:23 37.352324 -77.771459 72 35183ft 553kts
16-Oct-20 11:24 37.407907 -77.591697 72 35184ft 553kts
16-Oct-20 11:25 37.463662 -77.411429 69 35181ft 554kts
16-Oct-20 11:26 37.557459 -77.258025 34 35176ft 558kts
16-Oct-20 11:27 37.688396 -77.153809 30 35191ft 557kts
16-Oct-20 11:28 37.817300 -77.046378 31 35204ft 556kts
16-Oct-20 11:29 37.933151 -76.918045 40 35208ft 549kts
16-Oct-20 11:30 38.046389 -76.791651 39 35209ft 538kts
16-Oct-20 11:31 38.159154 -76.666237 39 35188ft 538kts
16-Oct-20 11:32 38.271456 -76.540883 39 35185ft 538kts
16-Oct-20 11:33 38.383912 -76.414812 39 35196ft 538kts
16-Oct-20 11:34 38.495726 -76.288925 40 35189ft 538kts
16-Oct-20 11:35 38.607778 -76.162209 40 35205ft 538kts
16-Oct-20 11:36 38.719819 -76.034972 40 35236ft 538kts
16-Oct-20 11:37 38.831436 -75.907658 40 35243ft 538kts
16-Oct-20 11:38 38.943390 -75.779408 40 35235ft 544kts
16-Oct-20 11:39 39.057152 -75.648496 41 35204ft 554kts
16-Oct-20 11:40 39.171736 -75.516005 41 35175ft 553kts
16-Oct-20 11:41 39.285920 -75.383402 41 35174ft 553kts
16-Oct-20 11:42 39.400130 -75.250172 42 35170ft 553kts
16-Oct-20 11:43 39.514416 -75.116219 42 35172ft 553kts
16-Oct-20 11:44 39.627136 -74.983508 42 35192ft 544kts
16-Oct-20 11:45 39.738539 -74.851725 42 35194ft 537kts
16-Oct-20 11:46 39.848999 -74.720471 42 35193ft 538kts
16-Oct-20 11:47 39.959270 -74.588832 42 35192ft 538kts
16-Oct-20 11:48 40.069306 -74.456882 42 35188ft 539kts
16-Oct-20 11:49 40.179313 -74.324363 42 35168ft 539kts
16-Oct-20 11:50 40.289219 -74.191347 43 35176ft 539kts
16-Oct-20 11:51 40.399014 -74.057849 42 35179ft 538kts
16-Oct-20 11:52 40.508573 -73.924005 42 35174ft 538kts
16-Oct-20 11:53 40.618400 -73.789177 43 35177ft 538kts
16-Oct-20 11:54 40.719577 -73.644591 48 35180ft 536kts
16-Oct-20 11:55 40.817491 -73.501062 48 32887ft 526kts
16-Oct-20 11:56 40.914178 -73.358501 48 30529ft 517kts
16-Oct-20 11:57 41.009677 -73.217068 50 28140ft 511kts
16-Oct-20 11:58 41.102659 -73.078667 50 25932ft 496kts
16-Oct-20 11:59 41.192683 -72.943887 52 23533ft 484kts
16-Oct-20 12:00 41.257375 -72.794988 66 23117ft 460kts
16-Oct-20 12:01 41.315538 -72.643099 66 23120ft 460kts
16-Oct-20 12:02 41.373101 -72.491456 67 23128ft 460kts
16-Oct-20 12:03 41.430655 -72.339024 67 23110ft 460kts
16-Oct-20 12:04 41.487847 -72.186327 68 22958ft 464kts
16-Oct-20 12:05 41.543405 -72.034434 68 21062ft 446kts
16-Oct-20 12:06 41.591064 -71.883972 73 19166ft 433kts
16-Oct-20 12:07 41.634246 -71.737208 73 17192ft 420kts
16-Oct-20 12:08 41.675614 -71.596697 73 16040ft 370kts
16-Oct-20 12:09 41.713170 -71.467986 73 14605ft 368kts
16-Oct-20 12:10 41.760007 -71.347075 64 12963ft 366kts
16-Oct-20 12:11 41.808389 -71.233633 64 11949ft 343kts
16-Oct-20 12:12 41.855472 -71.126406 63 10852ft 328kts
16-Oct-20 12:13 41.900832 -71.024096 64 9903ft 309kts
16-Oct-20 12:14 41.946542 -70.927618 59 8771ft 302kts
16-Oct-20 12:15 41.994014 -70.834944 58 7785ft 293kts
16-Oct-20 12:16 42.044414 -70.758827 46 7264ft 257kts
16-Oct-20 12:17 42.093527 -70.693405 46 6056ft 227kts
16-Oct-20 12:18 42.140025 -70.700598 303 5346ft 190kts
16-Oct-20 12:19 42.176942 -70.753485 307 4030ft 189kts
16-Oct-20 12:20 42.213376 -70.802940 308 3901ft 188kts
16-Oct-20 12:21 42.249380 -70.850989 309 2926ft 177kts
16-Oct-20 12:22 42.281588 -70.893895 310 2023ft 144kts
16-Oct-20 12:23 42.309340 -70.931032 312 1288ft 141kts
16-Oct-20 12:24 42.337037 -70.968031 314 533ft 139kts
16-Oct-20 12:25 42.364447 -71.004714 315 17ft 121kts
16-Oct-20 12:26 42.371795 -71.016283 227 17ft 10kts
16-Oct-20 12:27 42.371689 -71.018415 304 18ft 5kts

Navigation Log

Ident Type
Flight plan parsing failed, navigation log unavailable